Main page
METAR-TAF:

METAR-TAF

Airports :

Lisbon Airport

Lisbon, Portugal

latitude: 38-46N, longitude: 009-08W, elevation: 114 m

Current weather observation

The report was made 28 minutes ago, at 20:00 UTC
Wind 8 kt from the Northeast
Temperature 11°C
Humidity 62%
Pressure 1023 hPa
Visibility 10 km or more
no clouds below 1500 m and no cumulonimbus

METAR: LPPT 212000Z 04008KT CAVOK 11/04 Q1023

Time: 20:28 (20:28 UTC)

Forecast

The report was made 3 hours and 28 minutes ago, at 17:00 UTC
Forecast valid from 21 at 18 UTC to 22 at 24 UTC
Wind 8 kt from the Northeast
Visibility 10 km or more
no clouds below 1500 m and no cumulonimbus

TAF: LPPT 211700Z 2118/2224 05008KT CAVOK

Weather observations and forecasts of more than 4000 airports (METAR and TAF reports).

The available stations are represented by yellow and red dots on the map.

Hover mouse over dot to see the name of the station.

Then click to see weather observations and forecasts.

To change the map : click on the green buttons with a black cross to zoom in, on the green button with a dash to zoom out, or on the green arrows for adjacent maps.


METAR-TAF: